createdAt,value
2022-08-25T00:02:00.158Z,3.05
2022-08-25T00:04:29.605Z,3.10
2022-08-25T00:07:00.598Z,2.83
2022-08-25T00:09:30.200Z,2.78
2022-08-25T00:11:56.898Z,2.80
2022-08-25T00:14:26.940Z,3.05
2022-08-25T00:16:53.966Z,2.83
2022-08-25T00:19:26.819Z,2.90
2022-08-25T00:21:54.738Z,2.75
2022-08-25T00:24:22.314Z,2.80
2022-08-25T00:26:52.056Z,3.20
2022-08-25T00:29:18.946Z,3.10
2022-08-25T00:31:46.187Z,2.90
2022-08-25T00:34:18.897Z,3.10
2022-08-25T00:36:47.149Z,3.15
2022-08-25T00:39:14.097Z,3.30
2022-08-25T00:41:42.887Z,3.20
2022-08-25T00:44:12.066Z,3.13
2022-08-25T00:46:45.559Z,3.05
2022-08-25T00:49:31.166Z,2.95
2022-08-25T00:52:27.843Z,3.30
2022-08-25T00:55:07.938Z,2.90
2022-08-25T00:57:43.327Z,3.95
2022-08-25T01:00:16.215Z,3.90
2022-08-25T01:02:42.855Z,3.88
2022-08-25T01:05:09.445Z,3.50
2022-08-25T01:07:36.710Z,4.07
2022-08-25T01:10:04.981Z,3.67
2022-08-25T01:12:31.513Z,3.70
2022-08-25T01:14:58.693Z,3.70
2022-08-25T01:17:28.152Z,3.90
2022-08-25T01:19:55.838Z,3.50
2022-08-25T01:22:22.520Z,3.08
2022-08-25T01:25:00.965Z,3.17
2022-08-25T01:27:27.500Z,3.13
2022-08-25T01:29:55.162Z,3.20
2022-08-25T01:32:21.627Z,3.72
2022-08-25T01:34:48.363Z,3.15
2022-08-25T01:37:19.274Z,3.58
2022-08-25T01:39:46.243Z,3.40
2022-08-25T01:42:23.435Z,3.35
2022-08-25T01:44:50.475Z,3.33
2022-08-25T01:47:17.152Z,3.40
2022-08-25T01:49:43.813Z,3.00
2022-08-25T01:52:16.141Z,3.10
2022-08-25T01:54:42.866Z,3.42
2022-08-25T01:57:09.509Z,3.15
2022-08-25T01:59:35.945Z,3.55
2022-08-25T02:02:04.838Z,3.08
2022-08-25T02:04:32.632Z,3.53
2022-08-25T02:07:01.971Z,3.88
2022-08-25T02:09:28.475Z,3.80
2022-08-25T02:11:56.884Z,3.25
2022-08-25T02:14:23.665Z,3.80
2022-08-25T02:16:52.067Z,3.60
2022-08-25T02:19:19.526Z,4.07
2022-08-25T02:21:46.403Z,4.00
2022-08-25T02:24:13.742Z,4.22
2022-08-25T02:26:42.275Z,4.00
2022-08-25T02:29:10.348Z,4.68
2022-08-25T02:31:37.203Z,4.10
2022-08-25T02:34:04.199Z,4.15
2022-08-25T02:36:32.179Z,4.43
2022-08-25T02:38:59.198Z,4.15
2022-08-25T02:41:30.899Z,4.30
2022-08-25T02:43:58.702Z,4.30
2022-08-25T02:46:25.181Z,4.47
2022-08-25T02:48:52.966Z,4.22
2022-08-25T02:51:22.033Z,4.28
2022-08-25T02:53:48.562Z,4.22
2022-08-25T02:56:16.305Z,4.18
2022-08-25T02:58:43.006Z,4.50
2022-08-25T03:01:11.978Z,4.55
2022-08-25T03:03:40.739Z,4.38
2022-08-25T03:06:10.327Z,4.60
2022-08-25T03:08:38.022Z,4.57
2022-08-25T03:11:05.899Z,4.68
2022-08-25T03:13:32.748Z,4.00
2022-08-25T03:16:00.626Z,4.43
2022-08-25T03:18:27.686Z,4.22
2022-08-25T03:20:54.929Z,4.45
2022-08-25T03:23:21.495Z,4.20
2022-08-25T03:26:06.297Z,4.68
2022-08-25T03:28:33.221Z,4.75
2022-08-25T03:31:00.634Z,4.65
2022-08-25T03:33:28.863Z,4.43
2022-08-25T03:35:55.593Z,3.97
2022-08-25T03:38:23.577Z,4.38
2022-08-25T03:40:50.114Z,4.60
2022-08-25T03:43:16.558Z,4.53
2022-08-25T03:45:44.792Z,5.50
2022-08-25T03:48:11.614Z,5.10
2022-08-25T03:50:44.520Z,5.28
2022-08-25T03:53:18.936Z,5.32
2022-08-25T03:55:45.404Z,6.07
2022-08-25T03:58:12.380Z,6.45
2022-08-25T04:00:38.839Z,6.25
2022-08-25T04:03:05.355Z,6.63
2022-08-25T04:05:31.904Z,8.40
2022-08-25T04:08:01.807Z,7.72
2022-08-25T04:10:29.213Z,6.65
2022-08-25T04:12:56.130Z,6.28
2022-08-25T04:15:22.848Z,6.38
2022-08-25T04:17:49.511Z,6.32
2022-08-25T04:20:18.921Z,6.28
2022-08-25T04:22:45.462Z,6.00
2022-08-25T04:25:12.631Z,6.10
2022-08-25T04:27:39.041Z,5.40
2022-08-25T04:30:06.969Z,5.60
2022-08-25T04:32:36.307Z,6.15
2022-08-25T04:35:04.396Z,5.60
2022-08-25T04:37:30.841Z,5.57
2022-08-25T04:39:57.298Z,5.97
2022-08-25T04:42:23.769Z,5.68
2022-08-25T04:44:50.162Z,5.95
2022-08-25T04:47:16.595Z,6.00
2022-08-25T04:49:43.379Z,5.57
2022-08-25T04:52:14.501Z,5.88
2022-08-25T04:54:41.681Z,6.25
2022-08-25T04:57:08.097Z,6.10
2022-08-25T04:59:34.552Z,6.50
2022-08-25T05:02:05.354Z,5.88
2022-08-25T05:04:34.048Z,6.07
2022-08-25T05:07:00.726Z,8.38
2022-08-25T05:09:27.754Z,9.05
2022-08-25T05:11:54.980Z,6.20
2022-08-25T05:14:25.557Z,6.15
2022-08-25T05:16:54.530Z,8.38
2022-08-25T05:19:21.023Z,7.22
2022-08-25T05:21:47.917Z,6.53
2022-08-25T05:24:14.317Z,6.70
2022-08-25T05:26:41.295Z,6.80
2022-08-25T05:29:08.185Z,8.23
2022-08-25T05:31:41.707Z,6.40
2022-08-25T05:34:10.089Z,7.38
2022-08-25T05:36:37.050Z,7.22
2022-08-25T05:39:04.730Z,7.55
2022-08-25T05:41:31.741Z,8.63
2022-08-25T05:43:58.266Z,8.68
2022-08-25T05:46:25.496Z,9.90
2022-08-25T05:48:52.562Z,9.90
2022-08-25T05:51:19.781Z,9.73
2022-08-25T05:53:48.853Z,10.57
2022-08-25T05:56:16.016Z,8.98
2022-08-25T05:58:43.158Z,9.63
2022-08-25T06:01:29.367Z,8.30
2022-08-25T06:03:55.943Z,8.63
2022-08-25T06:06:24.434Z,7.63
2022-08-25T06:08:51.465Z,7.45
2022-08-25T06:11:19.613Z,7.35
2022-08-25T06:13:46.560Z,6.78
2022-08-25T06:16:13.032Z,7.35
2022-08-25T06:18:39.527Z,7.18
2022-08-25T06:21:14.519Z,7.30
2022-08-25T06:23:41.578Z,7.32
2022-08-25T06:26:20.839Z,7.05
2022-08-25T06:28:48.946Z,6.72
2022-08-25T06:31:15.431Z,7.25
2022-08-25T06:33:41.969Z,6.43
2022-08-25T06:36:08.730Z,6.97
2022-08-25T06:38:35.958Z,6.63
2022-08-25T06:41:05.397Z,6.80
2022-08-25T06:43:33.286Z,6.70
2022-08-25T06:46:10.744Z,7.03
2022-08-25T06:48:37.703Z,6.32
2022-08-25T06:51:14.033Z,6.53
2022-08-25T06:53:41.425Z,5.75
2022-08-25T06:56:08.441Z,6.40
2022-08-25T06:58:35.815Z,6.03
2022-08-25T07:01:20.091Z,6.07
2022-08-25T07:03:47.596Z,6.95
2022-08-25T07:06:18.484Z,7.13
2022-08-25T07:08:48.621Z,6.50
2022-08-25T07:11:17.612Z,5.88
2022-08-25T07:13:45.375Z,5.30
2022-08-25T07:16:12.178Z,5.55
2022-08-25T07:18:38.799Z,5.80
2022-08-25T07:21:05.378Z,5.63
2022-08-25T07:26:36.695Z,5.38
2022-08-25T07:29:10.675Z,5.80
2022-08-25T07:31:37.704Z,6.00
2022-08-25T07:34:23.488Z,5.40
2022-08-25T07:36:49.936Z,5.57
2022-08-25T07:39:17.594Z,5.65
2022-08-25T07:41:52.016Z,5.75
2022-08-25T07:44:20.721Z,5.53
2022-08-25T07:46:47.659Z,5.63
2022-08-25T07:49:16.814Z,6.00
2022-08-25T07:52:05.318Z,5.90
2022-08-25T07:54:34.337Z,5.68
2022-08-25T07:57:02.335Z,6.32
2022-08-25T07:59:29.208Z,6.00
2022-08-25T08:01:55.740Z,5.63
2022-08-25T08:04:22.304Z,5.45
2022-08-25T08:06:48.974Z,5.60
2022-08-25T08:09:16.230Z,6.10
2022-08-25T08:11:53.495Z,5.90
2022-08-25T08:14:20.579Z,6.40
2022-08-25T08:16:47.033Z,6.38
2022-08-25T08:19:13.463Z,6.85
2022-08-25T08:21:40.614Z,6.88
2022-08-25T08:24:14.906Z,6.78
2022-08-25T08:26:59.053Z,6.90
2022-08-25T08:29:26.912Z,7.90
2022-08-25T08:31:53.487Z,6.25
2022-08-25T08:34:20.145Z,6.72
2022-08-25T08:36:51.872Z,6.93
2022-08-25T08:39:18.325Z,6.90
2022-08-25T08:42:17.172Z,7.03
2022-08-25T08:44:47.895Z,7.32
2022-08-25T08:47:33.024Z,6.70
2022-08-25T08:50:05.027Z,6.78
2022-08-25T08:52:48.792Z,7.25
2022-08-25T08:55:42.674Z,8.30
2022-08-25T08:58:18.561Z,7.53
2022-08-25T09:00:54.201Z,7.30
2022-08-25T09:03:42.188Z,7.20
2022-08-25T09:06:13.086Z,7.25
2022-08-25T09:08:44.855Z,7.25
2022-08-25T09:11:32.783Z,7.03
2022-08-25T09:14:11.342Z,7.38
2022-08-25T09:16:59.977Z,7.15
2022-08-25T09:19:51.209Z,6.38
2022-08-25T09:22:40.566Z,7.05
2022-08-25T09:25:56.837Z,6.75
2022-08-25T09:28:36.493Z,6.40
2022-08-25T09:31:29.450Z,8.43
2022-08-25T09:33:58.375Z,5.60
2022-08-25T09:36:26.861Z,6.15
2022-08-25T09:38:53.312Z,6.00
2022-08-25T09:41:41.009Z,5.55
2022-08-25T09:44:20.939Z,5.55
2022-08-25T09:47:01.817Z,5.88
2022-08-25T09:49:55.487Z,6.10
2022-08-25T09:52:28.053Z,6.30
2022-08-25T09:54:56.849Z,6.60
2022-08-25T09:57:33.054Z,8.00
2022-08-25T10:00:22.196Z,6.70
2022-08-25T10:03:07.095Z,6.47
2022-08-25T10:05:38.361Z,6.57
2022-08-25T10:08:14.609Z,6.10
2022-08-25T10:10:54.294Z,7.05
2022-08-25T10:13:32.075Z,6.47
2022-08-25T10:16:24.550Z,5.63
2022-08-25T10:19:12.123Z,6.35
2022-08-25T10:21:41.775Z,6.18
2022-08-25T10:24:10.840Z,6.50
2022-08-25T10:27:01.055Z,6.35
2022-08-25T10:30:01.201Z,6.03
2022-08-25T10:32:51.380Z,6.28
2022-08-25T10:35:37.819Z,5.28
2022-08-25T10:38:22.964Z,5.85
2022-08-25T10:41:09.956Z,6.00
2022-08-25T10:43:49.608Z,5.63
2022-08-25T10:46:27.636Z,5.57
2022-08-25T10:49:23.833Z,5.80
2022-08-25T10:52:11.175Z,4.72
2022-08-25T10:55:00.624Z,5.55
2022-08-25T10:57:50.811Z,5.43
2022-08-25T11:00:31.404Z,5.05
2022-08-25T11:03:07.662Z,5.10
2022-08-25T11:05:55.633Z,5.40
2022-08-25T11:08:43.745Z,5.03
2022-08-25T11:11:24.285Z,5.15
2022-08-25T11:13:57.241Z,5.28
2022-08-25T11:16:39.378Z,5.40
2022-08-25T11:19:15.813Z,5.80
2022-08-25T11:21:57.965Z,5.72
2022-08-25T11:24:39.945Z,5.28
2022-08-25T11:27:15.822Z,5.35
2022-08-25T11:29:53.664Z,5.30
2022-08-25T11:32:20.947Z,5.45
2022-08-25T11:34:47.493Z,6.20
2022-08-25T11:37:25.560Z,5.50
2022-08-25T11:40:13.826Z,5.30
2022-08-25T11:43:09.554Z,5.50
2022-08-25T11:45:59.193Z,5.38
2022-08-25T11:48:51.084Z,5.07
2022-08-25T11:51:43.934Z,5.30
2022-08-25T11:54:30.113Z,5.05
2022-08-25T11:57:02.245Z,5.22
2022-08-25T11:59:54.925Z,5.40
2022-08-25T12:02:36.445Z,5.38
2022-08-25T12:05:06.387Z,5.40
2022-08-25T12:07:48.810Z,5.97
2022-08-25T12:10:20.705Z,5.20
2022-08-25T12:13:04.764Z,5.30
2022-08-25T12:15:56.016Z,5.60
2022-08-25T12:18:22.959Z,5.30
2022-08-25T12:20:56.310Z,5.90
2022-08-25T12:23:28.911Z,5.40
2022-08-25T12:25:58.745Z,5.28
2022-08-25T12:28:41.962Z,5.38
2022-08-25T12:31:51.860Z,5.70
2022-08-25T12:34:41.876Z,5.20
2022-08-25T12:37:16.562Z,5.53
2022-08-25T12:39:55.254Z,5.70
2022-08-25T12:42:38.617Z,5.20
2022-08-25T12:45:14.890Z,5.18
2022-08-25T12:47:47.353Z,5.25
2022-08-25T12:50:28.161Z,5.45
2022-08-25T12:53:22.794Z,5.90
2022-08-25T12:55:57.594Z,5.50
2022-08-25T12:58:58.437Z,5.68
2022-08-25T13:01:36.703Z,5.15
2022-08-25T13:04:23.887Z,5.97
2022-08-25T13:07:08.963Z,5.93
2022-08-25T13:09:49.504Z,5.63
2022-08-25T13:12:26.662Z,5.80
2022-08-25T13:14:57.477Z,5.35
2022-08-25T13:17:34.239Z,5.50
2022-08-25T13:20:15.238Z,5.65
2022-08-25T13:22:47.424Z,5.63
2022-08-25T13:25:21.306Z,5.40
2022-08-25T13:28:03.067Z,5.43
2022-08-25T13:30:35.552Z,5.05
2022-08-25T13:33:20.534Z,5.18
2022-08-25T13:36:11.196Z,4.88
2022-08-25T13:38:38.367Z,5.30
2022-08-25T13:41:09.230Z,5.53
2022-08-25T13:43:39.650Z,4.85
2022-08-25T13:46:07.581Z,5.10
2022-08-25T13:48:49.776Z,5.10
2022-08-25T13:51:23.058Z,5.93
2022-08-25T13:53:56.355Z,5.15
2022-08-25T13:56:40.069Z,5.40
2022-08-25T13:59:22.258Z,5.60
2022-08-25T14:01:50.335Z,5.32
2022-08-25T14:04:51.234Z,5.50
2022-08-25T14:07:22.386Z,5.55
2022-08-25T14:12:44.934Z,4.72
2022-08-25T14:15:20.636Z,4.97
2022-08-25T14:18:31.321Z,6.00
2022-08-25T14:21:06.373Z,5.40
2022-08-25T14:23:36.790Z,5.10
2022-08-25T14:26:03.260Z,5.43
2022-08-25T14:28:33.506Z,4.90
2022-08-25T14:31:05.142Z,5.47
2022-08-25T14:33:39.095Z,6.20
2022-08-25T14:36:07.009Z,6.43
2022-08-25T14:38:34.375Z,5.55
2022-08-25T14:41:00.886Z,5.38
2022-08-25T14:43:31.889Z,5.25
2022-08-25T14:46:00.559Z,5.43
2022-08-25T14:48:32.741Z,5.78
2022-08-25T14:51:00.034Z,5.22
2022-08-25T14:53:27.849Z,5.57
2022-08-25T14:55:58.715Z,5.32
2022-08-25T14:58:25.969Z,6.00
2022-08-25T15:00:53.553Z,5.28
2022-08-25T15:03:30.400Z,6.00
2022-08-25T15:06:00.019Z,6.10
2022-08-25T15:08:45.057Z,5.20
2022-08-25T15:11:11.574Z,5.28
2022-08-25T15:13:38.086Z,5.75
2022-08-25T15:16:08.710Z,5.28
2022-08-25T15:18:36.468Z,5.53
2022-08-25T15:21:02.912Z,5.57
2022-08-25T15:23:29.612Z,5.40
2022-08-25T15:25:56.655Z,5.90
2022-08-25T15:28:24.391Z,6.18
2022-08-25T15:30:53.055Z,5.97
2022-08-25T15:33:19.591Z,5.55
2022-08-25T15:35:46.432Z,5.47
2022-08-25T15:38:16.470Z,6.00
2022-08-25T15:40:42.922Z,6.07
2022-08-25T15:43:09.875Z,5.60
2022-08-25T15:45:36.553Z,5.95
2022-08-25T15:48:04.409Z,5.82
2022-08-25T15:50:33.741Z,5.18
2022-08-25T15:53:00.474Z,5.38
2022-08-25T15:55:27.502Z,5.93
2022-08-25T15:57:55.206Z,5.78
2022-08-25T16:00:22.695Z,5.95
2022-08-25T16:02:49.713Z,6.07
2022-08-25T16:05:16.735Z,5.95
2022-08-25T16:07:45.780Z,6.50
2022-08-25T16:10:12.651Z,6.33
2022-08-25T16:12:40.017Z,5.93
2022-08-25T16:15:09.747Z,6.15
2022-08-25T16:17:38.538Z,5.43
2022-08-25T16:20:07.965Z,5.93
2022-08-25T16:22:40.010Z,5.82
2022-08-25T16:25:07.045Z,5.80
2022-08-25T16:27:40.258Z,5.30
2022-08-25T16:30:11.742Z,6.20
2022-08-25T16:32:40.562Z,6.03
2022-08-25T16:35:11.052Z,5.60
2022-08-25T16:37:37.712Z,6.10
2022-08-25T16:40:05.096Z,5.50
2022-08-25T16:42:31.766Z,5.63
2022-08-25T16:44:58.226Z,5.88
2022-08-25T16:47:26.867Z,5.97
2022-08-25T16:49:53.699Z,5.72
2022-08-25T16:52:38.815Z,5.50
2022-08-25T16:55:13.404Z,5.80
2022-08-25T16:57:41.264Z,6.10
2022-08-25T17:00:13.761Z,5.88
2022-08-25T17:02:41.183Z,6.18
2022-08-25T17:05:09.413Z,5.45
2022-08-25T17:07:36.299Z,5.68
2022-08-25T17:10:05.159Z,5.75
2022-08-25T17:12:32.202Z,5.45
2022-08-25T17:14:59.233Z,5.60
2022-08-25T17:17:27.106Z,6.00
2022-08-25T17:19:54.858Z,5.63
2022-08-25T17:22:22.625Z,5.95
2022-08-25T17:24:53.424Z,6.00
2022-08-25T17:27:27.149Z,5.32
2022-08-25T17:29:53.531Z,6.07
2022-08-25T17:32:19.920Z,5.68
2022-08-25T17:34:46.696Z,6.43
2022-08-25T17:37:13.094Z,6.00
2022-08-25T17:39:40.767Z,6.10
2022-08-25T17:42:10.356Z,6.18
2022-08-25T17:44:37.470Z,5.93
2022-08-25T17:47:04.065Z,6.80
2022-08-25T17:49:31.419Z,6.63
2022-08-25T17:51:58.174Z,6.07
2022-08-25T17:54:25.017Z,6.53
2022-08-25T17:56:51.430Z,6.30
2022-08-25T17:59:18.909Z,5.97
2022-08-25T18:01:46.536Z,6.13
2022-08-25T18:04:17.213Z,5.93
2022-08-25T18:06:44.401Z,5.65
2022-08-25T18:09:11.642Z,5.68
2022-08-25T18:11:38.326Z,5.95
2022-08-25T18:14:06.026Z,5.43
2022-08-25T18:16:32.725Z,5.97
2022-08-25T18:19:00.578Z,5.75
2022-08-25T18:21:30.708Z,5.80
2022-08-25T18:23:57.789Z,5.55
2022-08-25T18:26:25.554Z,5.50
2022-08-25T18:28:52.123Z,5.15
2022-08-25T18:31:19.866Z,5.78
2022-08-25T18:33:46.828Z,5.90
2022-08-25T18:36:13.672Z,5.88
2022-08-25T18:38:59.696Z,6.07
2022-08-25T18:41:32.722Z,5.45
2022-08-25T18:43:59.177Z,5.35
2022-08-25T18:46:25.741Z,5.55
2022-08-25T18:48:52.588Z,5.78
2022-08-25T18:51:23.211Z,5.32
2022-08-25T18:53:50.994Z,6.03
2022-08-25T18:56:18.826Z,5.50
2022-08-25T18:58:46.132Z,5.85
2022-08-25T19:01:14.508Z,4.97
2022-08-25T19:03:42.508Z,5.07
2022-08-25T19:06:09.365Z,5.45
2022-08-25T19:08:36.551Z,5.47
2022-08-25T19:11:02.974Z,5.57
2022-08-25T19:13:29.417Z,5.95
2022-08-25T19:15:55.906Z,5.45
2022-08-25T19:18:29.360Z,5.75
2022-08-25T19:20:58.478Z,6.28
2022-08-25T19:23:26.511Z,5.32
2022-08-25T19:25:53.306Z,5.18
2022-08-25T19:28:19.837Z,5.43
2022-08-25T19:30:49.911Z,5.53
2022-08-25T19:33:42.848Z,6.00
2022-08-25T19:36:06.319Z,5.30
2022-08-25T19:38:36.390Z,5.20
2022-08-25T19:41:10.483Z,5.13
2022-08-25T19:43:56.211Z,5.60
2022-08-25T19:46:32.963Z,5.97
2022-08-25T19:49:08.068Z,6.05
2022-08-25T19:51:40.763Z,5.97
2022-08-25T19:54:08.973Z,5.80
2022-08-25T19:56:36.391Z,5.80
2022-08-25T19:59:03.779Z,5.35
2022-08-25T20:01:30.319Z,6.03
2022-08-25T20:03:56.914Z,5.80
2022-08-25T20:06:23.586Z,6.00
2022-08-25T20:08:59.059Z,5.45
2022-08-25T20:11:28.880Z,5.85
2022-08-25T20:13:58.186Z,5.93
2022-08-25T20:16:28.171Z,6.30
2022-08-25T20:18:54.710Z,6.13
2022-08-25T20:21:21.268Z,5.78
2022-08-25T20:24:06.350Z,6.10
2022-08-25T20:26:32.778Z,5.90
2022-08-25T20:28:59.226Z,5.70
2022-08-25T20:31:26.047Z,6.47
2022-08-25T20:33:52.542Z,6.07
2022-08-25T20:36:19.294Z,5.78
2022-08-25T20:38:45.757Z,6.28
2022-08-25T20:41:12.898Z,6.07
2022-08-25T20:43:39.965Z,6.00
2022-08-25T20:46:08.595Z,5.38
2022-08-25T20:48:36.204Z,5.82
2022-08-25T20:51:06.752Z,5.65
2022-08-25T20:53:38.388Z,5.78
2022-08-25T20:56:15.793Z,5.90
2022-08-25T20:58:43.035Z,6.28
2022-08-25T21:01:18.592Z,5.70
2022-08-25T21:03:50.312Z,5.85
2022-08-25T21:06:17.064Z,6.32
2022-08-25T21:08:46.820Z,5.55
2022-08-25T21:11:17.573Z,6.07
2022-08-25T21:13:45.739Z,6.03
2022-08-25T21:16:12.307Z,5.70
2022-08-25T21:18:48.007Z,5.43
2022-08-25T21:21:15.610Z,6.13
2022-08-25T21:23:44.980Z,6.63
2022-08-25T21:26:18.235Z,5.55
2022-08-25T21:28:47.792Z,7.25
2022-08-25T21:31:17.194Z,6.60
2022-08-25T21:33:45.721Z,5.73
2022-08-25T21:36:15.419Z,6.40
2022-08-25T21:38:42.697Z,6.10
2022-08-25T21:41:17.246Z,5.90
2022-08-25T21:43:55.119Z,6.30
2022-08-25T21:46:24.825Z,6.38
2022-08-25T21:48:51.898Z,7.05
2022-08-25T21:51:21.397Z,5.95
2022-08-25T21:56:19.599Z,7.00
2022-08-25T21:58:48.999Z,7.10
2022-08-25T22:01:19.377Z,5.82
2022-08-25T22:06:15.213Z,6.22
2022-08-25T22:08:43.253Z,5.57
2022-08-25T22:11:10.570Z,5.70
2022-08-25T22:13:38.099Z,5.65
2022-08-25T22:16:07.767Z,5.88
2022-08-25T22:18:34.718Z,5.53
2022-08-25T22:21:07.242Z,5.97
2022-08-25T22:23:41.836Z,5.95
2022-08-25T22:26:12.216Z,5.90
2022-08-25T22:28:39.215Z,6.68
2022-08-25T22:31:10.208Z,5.95
2022-08-25T22:33:37.261Z,6.07
2022-08-25T22:36:18.052Z,6.10
2022-08-25T22:38:45.396Z,5.80
2022-08-25T22:41:12.185Z,7.20
2022-08-25T22:43:51.167Z,5.93
2022-08-25T22:46:21.581Z,7.22
2022-08-25T22:48:50.326Z,5.95
2022-08-25T22:51:21.412Z,6.43
2022-08-25T22:56:17.749Z,6.40
2022-08-25T22:58:51.674Z,6.60
2022-08-25T23:01:20.063Z,6.68
2022-08-25T23:03:47.690Z,7.70
2022-08-25T23:06:19.660Z,7.57
2022-08-25T23:08:50.078Z,6.70
2022-08-25T23:11:18.364Z,6.80
2022-08-25T23:13:45.997Z,6.53
2022-08-25T23:16:13.302Z,7.75
2022-08-25T23:18:43.913Z,6.85
2022-08-25T23:21:30.083Z,7.75
2022-08-25T23:24:01.943Z,6.95
2022-08-25T23:26:28.791Z,7.40
2022-08-25T23:28:55.382Z,6.47
2022-08-25T23:31:21.852Z,7.00
2022-08-25T23:33:50.868Z,6.80
2022-08-25T23:36:17.782Z,7.55
2022-08-25T23:38:45.719Z,7.25
2022-08-25T23:41:21.458Z,7.43
2022-08-25T23:43:49.871Z,7.50
2022-08-25T23:46:18.786Z,8.23
2022-08-25T23:48:47.347Z,7.40
2022-08-25T23:51:22.148Z,8.02
2022-08-25T23:53:48.792Z,8.15
2022-08-25T23:56:15.196Z,7.65
2022-08-25T23:58:43.414Z,7.78
